Time;durP1;ratioP1;P1;durP2;ratioP2;P2;SDS_P1;SDS_P2;PMS_P1;PMS_P2;Temp;Humidity;BMP_temperature;BMP_pressure;BME280_temperature;BME280_humidity;BME280_pressure;Samples;Min_cycle;Max_cycle;Signal;HPM_P1;HPM_P2
2022/06/10 07:58:59;;;;;;;8.23;2.10;;;;;;;17.07;75.81;101995.06;5322730;27;20343;-68
2022/06/10 08:01:31;;;;;;;5.90;2.05;;;;;;;17.13;75.77;101988.25;5321893;28;20032;-68
2022/06/10 08:04:06;;;;;;;3.47;1.80;;;;;;;17.17;75.52;101990.13;5322134;28;20130;-68
2022/06/10 08:06:40;;;;;;;;;;;;;;;17.23;74.89;101992.84;5322738;28;20024;-70
2022/06/10 08:09:12;;;;;;;5.00;1.95;;;;;;;17.30;73.64;101991.28;5309738;28;19958;-76
2022/06/10 08:11:46;;;;;;;7.13;2.13;;;;;;;17.37;73.17;101999.31;5301199;28;20552;-74
2022/06/10 08:14:18;;;;;;;8.30;1.95;;;;;;;17.46;73.39;101996.63;5301271;28;20033;-71
2022/06/10 08:16:53;;;;;;;4.38;1.70;;;;;;;17.53;71.42;101997.88;5303833;28;20425;-70
2022/06/10 08:19:24;;;;;;;6.35;1.77;;;;;;;17.58;71.06;101999.78;5320786;28;20115;-70
2022/06/10 08:24:45;;;;;;;7.90;2.40;;;;;;;17.67;69.02;102002.72;5321007;28;20491;-70
2022/06/10 08:27:17;;;;;;;5.35;2.28;;;;;;;17.72;69.49;102000.63;5314324;28;20036;-70
2022/06/10 08:29:51;;;;;;;6.05;2.78;;;;;;;17.76;69.66;101998.84;5320718;28;20032;-69
2022/06/10 08:32:23;;;;;;;4.15;2.17;;;;;;;17.76;69.74;102007.25;5321930;28;20023;-69
2022/06/10 08:34:54;;;;;;;9.13;2.90;;;;;;;17.81;69.70;101998.78;5321468;28;20501;-70
2022/06/10 08:37:26;;;;;;;8.88;2.30;;;;;;;17.83;69.92;102008.88;5320822;28;20027;-71
2022/06/10 08:39:57;;;;;;;7.10;2.40;;;;;;;17.82;69.06;102005.25;5321335;28;20032;-73
2022/06/10 08:42:36;;;;;;;7.13;2.42;;;;;;;17.84;69.21;102002.94;5315692;28;20464;-75
2022/06/10 08:45:27;;;;;;;7.32;2.80;;;;;;;17.90;69.12;101998.09;5311149;28;20428;-69
2022/06/10 08:48:16;;;;;;;7.95;2.55;;;;;;;17.97;68.70;101998.47;5324088;28;20032;-70
2022/06/10 08:51:02;;;;;;;5.93;2.72;;;;;;;18.01;68.88;101986.31;5324106;28;20387;-70
2022/06/10 08:53:59;;;;;;;7.88;3.10;;;;;;;18.09;68.78;101984.75;5324390;27;20379;-71
2022/06/10 08:56:40;;;;;;;7.65;3.63;;;;;;;18.25;67.70;101980.47;5320606;28;20409;-69
2022/06/10 08:59:42;;;;;;;9.52;3.05;;;;;;;18.46;67.91;101980.84;5316753;28;20032;-70
2022/06/10 09:02:24;;;;;;;9.25;3.53;;;;;;;18.62;66.99;101981.31;5299671;28;20086;-72
2022/06/10 09:05:08;;;;;;;7.82;2.95;;;;;;;18.66;66.88;101981.50;5299339;28;20499;-73
2022/06/10 09:07:46;;;;;;;7.25;2.50;;;;;;;18.62;66.40;101972.06;5300037;28;20361;-73
2022/06/10 09:10:31;;;;;;;5.43;3.13;;;;;;;18.73;66.91;101975.47;5293453;28;20532;-72
2022/06/10 09:13:29;;;;;;;7.65;3.10;;;;;;;18.82;66.72;101984.84;5305717;28;20050;-70
2022/06/10 09:16:21;;;;;;;7.68;2.65;;;;;;;18.84;66.30;101979.69;5304212;28;20025;-70
2022/06/10 09:19:15;;;;;;;8.05;2.72;;;;;;;18.98;67.45;101977.69;5303938;28;20036;-71
2022/06/10 09:22:06;;;;;;;7.60;2.75;;;;;;;19.00;66.92;101983.81;5306786;28;20459;-69
2022/06/10 09:24:44;;;;;;;9.85;3.55;;;;;;;18.98;66.54;101988.09;5306867;28;20035;-70
2022/06/10 09:27:32;;;;;;;8.20;2.83;;;;;;;18.95;66.66;101991.53;5305844;28;20051;-70
2022/06/10 09:30:07;;;;;;;10.98;3.45;;;;;;;18.98;67.19;101990.91;5306247;28;20024;-70
2022/06/10 09:32:54;;;;;;;8.73;2.78;;;;;;;19.04;67.24;101992.44;5305957;28;20028;-70
2022/06/10 09:35:37;;;;;;;9.82;3.35;;;;;;;19.03;66.99;101994.41;5285620;28;20029;-69
2022/06/10 09:38:29;;;;;;;7.18;3.20;;;;;;;19.10;67.54;101983.56;5285553;28;20432;-70
2022/06/10 09:41:19;;;;;;;7.35;3.13;;;;;;;19.18;67.33;101993.19;5284853;28;20036;-69
2022/06/10 09:44:15;;;;;;;8.82;3.00;;;;;;;19.21;67.34;101986.94;5284482;28;20032;-69
2022/06/10 09:47:28;;;;;;;7.93;3.15;;;;;;;19.29;68.02;101993.75;5293553;28;20038;-71
2022/06/10 09:50:26;;;;;;;7.78;2.97;;;;;;;19.30;66.93;101993.44;5303137;28;20032;-69
2022/06/10 09:53:00;;;;;;;8.60;2.90;;;;;;;19.28;67.15;101994.91;5285347;28;20090;-70
2022/06/10 09:55:40;;;;;;;9.57;3.97;;;;;;;19.26;67.08;101997.22;5284383;28;20032;-67
2022/06/10 09:58:41;;;;;;;7.25;3.45;;;;;;;19.32;67.50;101990.28;5284571;28;20052;-70
2022/06/10 10:01:27;;;;;;;9.85;4.15;;;;;;;19.39;67.32;101989.84;5301321;28;20028;-68
2022/06/10 10:04:25;;;;;;;10.95;4.90;;;;;;;19.53;67.02;101990.56;5305830;28;20488;-69
2022/06/10 10:07:10;;;;;;;8.93;3.25;;;;;;;19.76;67.27;101983.78;5304884;28;20043;-69
2022/06/10 10:10:02;;;;;;;8.80;3.45;;;;;;;19.79;66.71;101999.19;5304908;28;20035;-68
2022/06/10 10:12:48;;;;;;;7.88;3.03;;;;;;;19.89;66.49;101993.28;5305726;28;20439;-68
2022/06/10 10:15:37;;;;;;;9.60;3.67;;;;;;;19.87;66.77;102001.22;5304133;28;20085;-67
2022/06/10 10:18:26;;;;;;;5.53;2.83;;;;;;;19.77;66.55;101993.88;5305450;28;20399;-67
2022/06/10 10:20:58;;;;;;;10.98;3.40;;;;;;;19.75;66.83;101993.38;5304059;28;20514;-69
2022/06/10 10:23:48;;;;;;;8.93;3.80;;;;;;;19.75;68.09;101996.19;5304529;28;20107;-74
2022/06/10 10:26:40;;;;;;;9.35;4.50;;;;;;;19.73;66.78;101994.84;5304488;28;20526;-70
2022/06/10 10:29:17;;;;;;;9.05;3.22;;;;;;;19.72;66.77;101987.56;5304057;28;20357;-68
2022/06/10 10:32:39;;;;;;;9.35;3.33;;;;;;;19.72;66.91;101987.56;5305090;28;20028;-69
2022/06/10 10:35:28;;;;;;;9.80;4.00;;;;;;;19.79;66.89;101993.56;5260607;28;20028;-69
2022/06/10 10:38:04;;;;;;;10.85;3.75;;;;;;;19.84;67.01;101986.94;5302129;28;20399;-68
2022/06/10 10:40:43;;;;;;;12.35;3.45;;;;;;;20.02;66.75;101990.66;5304756;28;20115;-68
2022/06/10 10:43:20;;;;;;;6.97;3.72;;;;;;;20.07;66.53;101982.03;5283407;28;20091;-67
2022/06/10 10:46:02;;;;;;;10.45;3.45;;;;;;;20.16;66.27;101991.34;5284773;28;20476;-68
2022/06/10 10:48:37;;;;;;;13.60;4.25;;;;;;;20.09;66.05;101979.75;5304984;28;20038;-67
2022/06/10 10:51:11;;;;;;;9.30;4.55;;;;;;;20.16;66.68;101980.91;5303589;28;20479;-68
2022/06/10 10:53:48;;;;;;;17.00;14.75;;;;;;;20.13;66.61;101978.75;5305215;28;20297;-67
2022/06/10 10:56:30;;;;;;;9.50;4.40;;;;;;;20.10;66.62;101978.59;5304833;28;20418;-67
2022/06/10 10:59:01;;;;;;;10.73;4.10;;;;;;;20.05;66.67;101978.75;5302891;28;20438;-68
2022/06/10 11:01:46;;;;;;;9.10;3.50;;;;;;;20.15;66.76;101972.81;5304470;28;20089;-68
2022/06/10 11:04:26;;;;;;;8.70;3.97;;;;;;;20.12;66.29;101973.44;5303937;28;20038;-68
2022/06/10 11:07:11;;;;;;;12.65;5.35;;;;;;;20.15;66.86;101976.47;5303504;28;20028;-68
2022/06/10 11:10:04;;;;;;;11.33;3.77;;;;;;;20.23;66.88;101969.19;5304127;28;20059;-68
2022/06/10 11:12:35;;;;;;;9.73;3.78;;;;;;;20.25;66.25;101975.31;5303836;28;20028;-68
2022/06/10 11:15:16;;;;;;;7.93;4.05;;;;;;;20.28;66.35;101977.47;5301077;28;20027;-67
2022/06/10 11:17:49;;;;;;;9.80;4.65;;;;;;;20.36;66.23;101973.84;5286881;28;20550;-68
2022/06/10 11:20:32;;;;;;;8.07;4.07;;;;;;;20.41;65.74;101973.69;5302477;28;20028;-68
2022/06/10 11:23:26;;;;;;;8.43;4.10;;;;;;;20.48;66.35;101976.03;5304178;28;20024;-67
2022/06/10 11:26:10;;;;;;;9.00;4.18;;;;;;;20.46;65.87;101971.88;5303970;28;20524;-68
2022/06/10 11:28:43;;;;;;;8.30;4.13;;;;;;;20.54;66.21;101969.09;5304096;28;20035;-68
2022/06/10 11:31:26;;;;;;;9.57;3.42;;;;;;;20.68;66.58;101968.09;5303863;28;20028;-67
2022/06/10 11:33:59;;;;;;;9.95;4.10;;;;;;;20.65;66.48;101968.75;5285119;28;20031;-67
2022/06/10 11:36:44;;;;;;;9.00;3.35;;;;;;;20.70;66.39;101977.88;5292548;28;20016;-68
2022/06/10 11:39:23;;;;;;;15.63;4.75;;;;;;;20.72;65.65;101964.28;5303148;28;20024;-68
2022/06/10 11:42:07;;;;;;;7.10;2.78;;;;;;;20.87;65.40;101959.31;5302039;28;20533;-68
2022/06/10 11:44:56;;;;;;;6.00;3.25;;;;;;;20.92;65.21;101962.78;5303352;28;20380;-68
2022/06/10 11:47:33;;;;;;;8.02;3.70;;;;;;;21.04;63.64;101960.13;5303474;28;20468;-68
2022/06/10 11:50:51;;;;;;;10.23;5.22;;;;;;;21.11;63.77;101953.13;5292638;28;20017;-68
2022/06/10 11:53:39;;;;;;;5.68;3.03;;;;;;;21.14;63.64;101953.31;5270261;28;20039;-68
2022/06/10 12:00:12;;;;;;;5.53;2.63;;;;;;;21.36;61.25;101948.59;5303865;28;20033;-69
2022/06/10 12:02:46;;;;;;;7.20;2.53;;;;;;;21.28;60.81;101953.91;5302911;28;20064;-69
2022/06/10 12:05:55;;;;;;;8.57;3.42;;;;;;;21.31;60.99;101946.78;5303446;28;20112;-68
2022/06/10 12:08:34;;;;;;;8.18;3.30;;;;;;;21.38;59.92;101946.25;5279992;28;20036;-67
2022/06/10 12:11:14;;;;;;;6.65;2.05;;;;;;;21.52;59.08;101934.78;5301861;28;20039;-67
2022/06/10 12:13:56;;;;;;;5.10;2.38;;;;;;;21.48;57.85;101934.63;5303536;28;20413;-68
2022/06/10 12:16:30;;;;;;;5.53;2.63;;;;;;;21.62;59.70;101929.56;5301965;28;20020;-68
2022/06/10 12:19:12;;;;;;;7.07;2.97;;;;;;;21.85;59.81;101927.31;5303684;28;20035;-68
2022/06/10 12:21:46;;;;;;;7.80;3.00;;;;;;;21.98;60.21;101924.56;5302205;28;20055;-68
2022/06/10 12:24:20;;;;;;;8.65;3.13;;;;;;;22.09;59.02;101920.22;5291157;28;20031;-68
2022/06/10 12:27:05;;;;;;;6.53;2.65;;;;;;;22.21;57.13;101923.13;5293825;28;20059;-68
2022/06/10 12:30:02;;;;;;;5.80;2.80;;;;;;;22.18;57.42;101917.31;5302976;28;20544;-68
2022/06/10 12:32:52;;;;;;;8.82;2.50;;;;;;;22.19;57.25;101913.31;5303800;28;20104;-69
2022/06/10 12:35:28;;;;;;;5.97;2.70;;;;;;;22.23;57.42;101914.31;5302792;28;20127;-68
2022/06/10 12:38:05;;;;;;;8.10;2.60;;;;;;;22.20;57.26;101912.19;5302400;28;20032;-68
2022/06/10 12:40:41;;;;;;;7.53;3.00;;;;;;;22.09;57.29;101906.09;5296553;28;20098;-68
2022/06/10 12:43:17;;;;;;;;;;;;;;;22.23;58.12;101908.66;5282097;28;20021;-68
2022/06/10 12:45:50;;;;;;;;;;;;;;;22.34;58.10;101907.91;5296169;28;20376;-68
2022/06/10 12:48:30;;;;;;;4.65;2.30;;;;;;;22.53;55.73;101909.44;5307291;28;19915;-68
2022/06/10 12:51:11;;;;;;;5.70;2.53;;;;;;;22.51;55.61;101904.09;5306397;28;20080;-68
2022/06/10 12:53:49;;;;;;;9.35;3.05;;;;;;;22.46;56.16;101909.16;5307125;28;20020;-68
2022/06/10 12:56:33;;;;;;;7.72;3.08;;;;;;;22.50;56.10;101899.63;5306760;28;20032;-69
2022/06/10 12:59:05;;;;;;;7.80;2.83;;;;;;;22.51;56.16;101904.09;5285654;28;20040;-68
2022/06/10 13:01:36;;;;;;;7.07;2.50;;;;;;;22.64;54.96;101896.50;5298743;28;20085;-68
2022/06/10 13:04:20;;;;;;;5.43;2.78;;;;;;;22.56;55.46;101901.06;5305834;28;20095;-67
2022/06/10 13:07:03;;;;;;;6.72;2.70;;;;;;;22.53;56.33;101896.13;5306414;28;20072;-67
2022/06/10 13:09:36;;;;;;;5.95;3.33;;;;;;;22.65;55.73;101898.19;5306808;28;20020;-67
2022/06/10 13:12:08;;;;;;;7.28;2.92;;;;;;;22.54;55.65;101903.41;5306138;28;20046;-68
2022/06/10 13:14:47;;;;;;;6.05;3.17;;;;;;;22.50;55.71;101904.47;5299705;28;20107;-69
2022/06/10 13:17:24;;;;;;;5.50;2.80;;;;;;;22.33;55.67;101908.25;5285213;28;20108;-69
2022/06/10 13:19:56;;;;;;;9.23;2.95;;;;;;;22.33;56.85;101913.91;5295335;28;20031;-69
2022/06/10 13:22:37;;;;;;;6.38;3.25;;;;;;;22.19;56.99;101913.31;5306254;28;20028;-69
2022/06/10 13:25:11;;;;;;;8.23;3.58;;;;;;;22.11;57.31;101906.53;5305056;28;20387;-68
2022/06/10 13:27:46;;;;;;;8.15;3.30;;;;;;;22.10;57.55;101913.38;5306174;28;20051;-69
2022/06/10 13:30:28;;;;;;;12.57;3.55;;;;;;;22.04;57.72;101907.09;5306032;28;20078;-69
2022/06/10 13:33:06;;;;;;;8.75;2.65;;;;;;;21.97;58.63;101912.47;5287055;28;20502;-67
2022/06/10 13:35:50;;;;;;;8.35;3.17;;;;;;;21.92;58.39;101912.66;5284740;28;20033;-68
2022/06/10 13:38:24;;;;;;;6.13;3.20;;;;;;;21.85;58.78;101920.84;5301071;28;20032;-68
2022/06/10 13:43:55;;;;;;;9.90;3.22;;;;;;;21.86;58.43;101917.69;5296841;28;20024;-69
2022/06/10 13:46:31;;;;;;;8.10;3.27;;;;;;;21.91;59.12;101913.84;5304869;28;20451;-68
2022/06/10 13:49:46;;;;;;;6.70;2.92;;;;;;;21.84;58.70;101916.38;5285657;28;20776;-70
2022/06/10 13:52:29;;;;;;;6.18;2.80;;;;;;;21.87;58.90;101921.31;5292490;28;20098;-69
2022/06/10 13:55:19;;;;;;;13.32;7.53;;;;;;;21.84;58.85;101917.19;5304584;28;20029;-68
2022/06/10 13:58:08;;;;;;;6.88;3.30;;;;;;;21.88;59.08;101914.50;5305157;28;20076;-68
2022/06/10 14:00:50;;;;;;;9.88;3.10;;;;;;;21.85;58.63;101912.38;5304679;28;20036;-68
2022/06/10 14:03:30;;;;;;;5.13;2.85;;;;;;;21.86;59.64;101909.22;5305875;28;20020;-69
2022/06/10 14:06:19;;;;;;;6.47;3.45;;;;;;;21.79;59.57;101910.91;5294896;28;20028;-70
2022/06/10 14:09:01;;;;;;;7.65;3.47;;;;;;;21.80;59.80;101906.91;5304202;28;20459;-68
2022/06/10 14:11:39;;;;;;;8.32;3.53;;;;;;;21.79;59.16;101910.91;5305585;28;20023;-69
2022/06/10 14:14:10;;;;;;;7.05;3.80;;;;;;;21.75;58.80;101918.41;5304726;28;20016;-70
2022/06/10 14:16:42;;;;;;;6.73;3.60;;;;;;;21.76;59.27;101917.25;5304973;28;20055;-69
2022/06/10 14:19:19;;;;;;;7.95;3.50;;;;;;;21.70;59.61;101908.13;5305412;28;20262;-68
2022/06/10 14:21:50;;;;;;;6.90;3.17;;;;;;;21.74;59.81;101919.59;5303807;28;20024;-67
2022/06/10 14:24:29;;;;;;;7.85;3.17;;;;;;;21.69;60.41;101912.94;5304974;28;20030;-67
2022/06/10 14:27:17;;;;;;;6.82;4.07;;;;;;;21.62;60.18;101909.81;5304605;28;20020;-68
2022/06/10 14:29:57;;;;;;;6.55;4.03;;;;;;;21.66;60.60;101912.81;5304006;28;20054;-68
2022/06/10 14:32:32;;;;;;;6.35;3.33;;;;;;;21.66;60.38;101915.63;5304646;28;20103;-66
2022/06/10 14:35:33;;;;;;;9.13;4.22;;;;;;;21.64;60.77;101915.97;5304865;28;20043;-68
2022/06/10 14:38:13;;;;;;;9.02;3.75;;;;;;;21.61;60.42;101913.00;5284808;28;20032;-68
2022/06/10 14:41:18;;;;;;;9.05;4.50;;;;;;;21.65;61.01;101912.00;5285315;28;20043;-68
2022/06/10 14:44:18;;;;;;;11.32;4.65;;;;;;;21.65;60.98;101906.34;5294053;28;20461;-69
2022/06/10 14:47:11;;;;;;;8.02;4.60;;;;;;;21.68;60.90;101902.84;5302026;28;20028;-69
2022/06/10 14:49:51;;;;;;;7.65;4.30;;;;;;;21.70;61.04;101900.50;5303367;28;20060;-69
2022/06/10 14:52:36;;;;;;;7.20;3.53;;;;;;;21.73;61.00;101901.81;5304344;28;20430;-70
2022/06/10 14:55:33;;;;;;;8.48;6.18;;;;;;;21.75;60.44;101905.09;5304729;28;20069;-69
2022/06/10 14:58:12;;;;;;;9.50;4.75;;;;;;;21.75;60.79;101899.47;5284027;28;20045;-68
2022/06/10 15:00:45;;;;;;;10.93;6.95;;;;;;;21.82;60.74;101899.75;5301531;28;20028;-68
2022/06/10 15:03:22;;;;;;;10.38;4.20;;;;;;;21.80;59.69;101899.25;5283190;28;20025;-69
2022/06/10 15:06:25;;;;;;;14.23;7.85;;;;;;;21.83;60.01;101901.44;5295254;28;20036;-68
2022/06/10 15:09:10;;;;;;;10.32;4.60;;;;;;;21.81;59.93;101900.13;5303925;28;20536;-67
2022/06/10 15:11:43;;;;;;;6.53;3.85;;;;;;;21.81;59.43;101898.13;5303617;28;20020;-68
2022/06/10 15:14:17;;;;;;;7.95;4.25;;;;;;;21.80;59.24;101898.44;5291931;28;20059;-66
2022/06/10 15:16:49;;;;;;;7.45;3.10;;;;;;;21.85;60.03;101896.25;5283946;28;20031;-67
2022/06/10 15:19:20;;;;;;;6.53;3.50;;;;;;;21.80;59.94;101901.25;5303414;28;20024;-68
2022/06/10 15:21:52;;;;;;;7.13;3.40;;;;;;;21.80;59.68;101901.25;5303350;28;20028;-68
2022/06/10 15:24:25;;;;;;;4.68;2.38;;;;;;;21.80;59.07;101890.78;5303635;28;20182;-68
2022/06/10 15:26:57;;;;;;;5.75;2.58;;;;;;;21.81;58.72;101891.66;5303347;28;20027;-69
2022/06/10 15:29:29;;;;;;;6.90;2.95;;;;;;;21.82;58.53;101884.81;5303355;28;20020;-67
2022/06/10 15:32:00;;;;;;;7.88;2.75;;;;;;;21.80;58.79;101885.16;5290398;28;20024;-69
2022/06/10 15:34:31;;;;;;;7.07;2.97;;;;;;;21.77;58.97;101885.00;5303540;28;20020;-69
2022/06/10 15:42:52;;;;;;;7.05;4.22;;;;;;;21.79;58.63;101877.84;5304152;28;20032;-69
2022/06/10 15:45:23;;;;;;;5.87;2.57;;;;;;;21.75;59.11;101876.06;5303513;28;20027;-69
2022/06/10 15:47:55;;;;;;;5.97;3.45;;;;;;;21.74;59.60;101872.41;5297652;28;20023;-69
2022/06/10 15:50:28;;;;;;;4.70;2.63;;;;;;;21.70;59.44;101880.75;5303923;28;20135;-68
2022/06/10 15:53:00;;;;;;;5.93;2.72;;;;;;;21.68;59.70;101876.59;5302850;28;20020;-67
2022/06/10 15:58:30;;;;;;;4.22;2.33;;;;;;;21.72;59.74;101866.28;5303109;28;20131;-66
2022/06/10 16:01:02;;;;;;;5.63;2.75;;;;;;;21.73;59.67;101878.38;5302182;28;20027;-68
2022/06/10 16:03:34;;;;;;;6.07;2.50;;;;;;;21.74;59.65;101868.75;5304726;28;20028;-67
2022/06/10 16:06:06;;;;;;;7.40;2.95;;;;;;;21.74;59.39;101878.06;5313442;28;20482;-68
2022/06/10 16:08:37;;;;;;;8.93;5.82;;;;;;;21.78;59.56;101869.72;5301784;28;20109;-73
2022/06/10 16:11:17;;;;;;;10.70;5.55;;;;;;;21.82;59.55;101877.16;5302646;28;20103;-73
2022/06/10 16:13:50;;;;;;;4.85;2.50;;;;;;;21.86;59.51;101872.50;5302984;28;20024;-71
2022/06/10 16:16:25;;;;;;;3.60;1.73;;;;;;;21.90;59.59;101862.16;5302980;28;20027;-73
2022/06/10 16:18:59;;;;;;;5.35;2.30;;;;;;;21.94;59.55;101867.97;5303987;28;20471;-72
2022/06/10 16:21:30;;;;;;;5.97;2.70;;;;;;;21.93;59.91;101869.97;5301361;28;20025;-71
2022/06/10 16:24:03;;;;;;;6.40;3.05;;;;;;;21.96;59.47;101865.63;5307440;28;20060;-73
2022/06/10 16:26:37;;;;;;;5.82;3.08;;;;;;;21.92;59.48;101864.66;5312172;28;20028;-70
2022/06/10 16:29:16;;;;;;;11.35;2.83;;;;;;;21.99;59.86;101858.47;5306207;28;20035;-68
2022/06/10 16:31:48;;;;;;;7.72;2.30;;;;;;;21.93;59.48;101866.28;5306396;28;20024;-68
2022/06/10 16:34:19;;;;;;;6.05;2.67;;;;;;;21.91;59.25;101860.19;5306751;28;20438;-69
2022/06/10 16:36:50;;;;;;;5.38;2.83;;;;;;;21.90;59.33;101864.16;5307004;28;20039;-69
2022/06/10 16:39:22;;;;;;;6.50;2.80;;;;;;;21.87;59.14;101862.03;5297774;28;20031;-67
2022/06/10 16:41:55;;;;;;;4.55;2.35;;;;;;;21.82;59.60;101853.75;5307097;28;20024;-68
2022/06/10 16:44:36;;;;;;;5.65;2.60;;;;;;;21.80;59.35;101856.09;5307099;28;20024;-68
2022/06/10 16:47:13;;;;;;;5.30;2.63;;;;;;;21.75;59.68;101861.94;5306243;28;20032;-68
2022/06/10 16:49:46;;;;;;;5.32;2.58;;;;;;;21.71;60.02;101856.97;5309301;28;20051;-68
2022/06/10 16:52:22;;;;;;;6.63;2.47;;;;;;;21.69;60.33;101855.66;5306180;28;20047;-68
2022/06/10 16:54:53;;;;;;;6.03;3.03;;;;;;;21.70;61.01;101849.69;5308782;28;20027;-68
2022/06/10 16:57:34;;;;;;;9.85;7.25;;;;;;;21.70;61.23;101852.50;5297461;28;20044;-68
2022/06/10 17:00:08;;;;;;;6.38;4.03;;;;;;;21.69;61.15;101856.50;5306361;28;20024;-68
2022/06/10 17:02:44;;;;;;;5.47;2.92;;;;;;;21.70;61.03;101860.13;5307063;28;20028;-68
2022/06/10 17:05:19;;;;;;;5.68;2.83;;;;;;;21.68;61.34;101860.50;5306334;28;20028;-67
2022/06/10 17:07:50;;;;;;;7.05;3.60;;;;;;;21.73;61.68;101845.34;5308195;28;20038;-68
2022/06/10 17:10:23;;;;;;;4.80;2.90;;;;;;;21.74;61.59;101846.19;5305792;28;20102;-68
2022/06/10 17:13:02;;;;;;;8.15;3.75;;;;;;;21.73;61.74;101844.50;5297458;28;20028;-68
2022/06/10 17:15:36;;;;;;;6.78;3.17;;;;;;;21.68;61.80;101852.03;5305317;28;20086;-67
2022/06/10 17:18:14;;;;;;;7.45;3.20;;;;;;;21.63;62.18;101845.75;5311605;28;20118;-67
2022/06/10 17:20:46;;;;;;;8.18;3.65;;;;;;;21.65;62.55;101849.88;5310146;27;20387;-68
2022/06/10 17:23:27;;;;;;;6.50;3.15;;;;;;;21.65;62.27;101841.41;5311116;28;20024;-68
2022/06/10 17:26:24;;;;;;;6.53;2.90;;;;;;;21.63;62.78;101849.41;5307310;28;20029;-68
2022/06/10 17:29:00;;;;;;;9.02;3.60;;;;;;;21.58;62.87;101849.59;5308749;28;20036;-67
